Time;durP1;ratioP1;P1;durP2;ratioP2;P2;SDS_P1;SDS_P2;PMS_P1;PMS_P2;Temp;Humidity;BMP_temperature;BMP_pressure;BME280_temperature;BME280_humidity;BME280_pressure;Samples;Min_cycle;Max_cycle;Signal;HPM_P1;HPM_P2
2021/09/23 00:01:34;;;;;;;10.65;6.78;;;;;;;;;;5082151;28;20020;-68
2021/09/23 00:04:16;;;;;;;11.00;7.43;;;;;;;;;;5079940;28;20039;-67
2021/09/23 00:06:41;;;;;;;9.93;6.57;;;;;;;;;;5087677;28;20031;-67
2021/09/23 00:09:07;;;;;;;10.65;6.63;;;;;;;;;;5086337;28;20020;-67
2021/09/23 00:11:32;;;;;;;13.68;7.40;;;;;;;;;;5079226;28;20024;-68
2021/09/23 00:13:58;;;;;;;13.30;6.10;;;;;;;;;;5072601;28;20032;-67
2021/09/23 00:16:23;;;;;;;10.48;6.50;;;;;;;;;;5087851;28;20016;-66
2021/09/23 00:18:50;;;;;;;10.68;7.00;;;;;;;;;;5083457;28;20027;-66
2021/09/23 00:21:15;;;;;;;11.88;7.18;;;;;;;;;;5074129;28;20029;-67
2021/09/23 00:23:40;;;;;;;10.27;6.57;;;;;;;;;;5078139;28;20029;-67
2021/09/23 00:26:06;;;;;;;9.93;6.40;;;;;;;;;;5072424;28;20037;-68
2021/09/23 00:28:31;;;;;;;10.85;6.72;;;;;;;;;;5077056;28;20012;-67
2021/09/23 00:30:56;;;;;;;11.73;7.13;;;;;;;;;;5081571;28;20114;-67
2021/09/23 00:33:21;;;;;;;7.70;5.80;;;;;;;;;;5091943;28;20369;-67
2021/09/23 00:35:47;;;;;;;10.60;5.43;;;;;;;;;;5080217;28;20291;-67
2021/09/23 00:38:12;;;;;;;8.98;5.97;;;;;;;;;;5083868;28;20102;-67
2021/09/23 00:40:37;;;;;;;9.55;6.63;;;;;;;;;;5089426;28;20027;-67
2021/09/23 00:43:05;;;;;;;8.57;5.80;;;;;;;;;;5089317;28;20679;-67
2021/09/23 00:45:30;;;;;;;8.32;5.75;;;;;;;;;;5083891;28;20032;-68
2021/09/23 00:47:55;;;;;;;7.10;5.60;;;;;;;;;;5076971;28;20081;-67
2021/09/23 00:50:22;;;;;;;9.20;5.72;;;;;;;;;;5073838;28;20020;-67
2021/09/23 00:52:48;;;;;;;9.98;6.28;;;;;;;;;;5076467;28;20035;-67
2021/09/23 00:55:13;;;;;;;10.38;7.50;;;;;;;;;;5083149;28;20020;-68
2021/09/23 00:57:39;;;;;;;9.93;5.72;;;;;;;;;;5087851;28;20023;-67
2021/09/23 01:00:07;;;;;;;10.70;6.57;;;;;;;;;;5090116;28;20024;-66
2021/09/23 01:02:32;;;;;;;10.10;6.57;;;;;;;;;;5084022;28;20027;-64
2021/09/23 01:04:58;;;;;;;7.07;5.15;;;;;;;;;;5091620;22;20466;-64
2021/09/23 01:07:23;;;;;;;13.60;7.43;;;;;;;;;;5073149;28;20028;-63
2021/09/23 01:09:49;;;;;;;9.05;5.80;;;;;;;;;;5080017;28;20032;-64
2021/09/23 01:12:15;;;;;;;11.25;5.65;;;;;;;;;;5081722;28;20025;-65
2021/09/23 01:14:41;;;;;;;7.95;6.25;;;;;;;;;;5075278;28;20033;-64
2021/09/23 01:17:07;;;;;;;10.38;5.70;;;;;;;;;;5073106;28;20059;-64
2021/09/23 01:19:33;;;;;;;7.72;6.25;;;;;;;;;;5077307;28;20012;-64
2021/09/23 01:21:58;;;;;;;12.45;6.28;;;;;;;;;;5083286;28;20046;-62
2021/09/23 01:24:24;;;;;;;12.73;6.47;;;;;;;;;;5088658;28;20036;-64
2021/09/23 01:26:50;;;;;;;8.23;5.30;;;;;;;;;;5087561;28;20029;-64
2021/09/23 01:29:15;;;;;;;8.00;5.65;;;;;;;;;;5081723;28;20505;-64
2021/09/23 01:31:41;;;;;;;8.70;4.93;;;;;;;;;;5075747;28;20064;-63
2021/09/23 01:34:06;;;;;;;6.60;5.75;;;;;;;;;;5071718;28;20034;-64
2021/09/23 01:36:31;;;;;;;14.93;7.10;;;;;;;;;;5076146;28;20111;-64
2021/09/23 01:38:57;;;;;;;8.57;5.13;;;;;;;;;;5082495;28;20038;-64
2021/09/23 01:41:22;;;;;;;11.30;5.40;;;;;;;;;;5087401;28;20092;-64
2021/09/23 01:43:47;;;;;;;13.52;6.05;;;;;;;;;;5088045;28;20052;-64
2021/09/23 01:46:12;;;;;;;5.68;4.78;;;;;;;;;;5081318;28;20029;-63
2021/09/23 01:48:38;;;;;;;9.98;5.18;;;;;;;;;;5076560;28;20059;-64
2021/09/23 01:51:03;;;;;;;7.53;5.07;;;;;;;;;;5071668;28;20032;-64
2021/09/23 01:53:28;;;;;;;10.43;5.25;;;;;;;;;;5058157;28;20506;-64
2021/09/23 01:55:54;;;;;;;8.32;5.32;;;;;;;;;;5081209;28;20149;-64
2021/09/23 01:58:19;;;;;;;8.70;5.10;;;;;;;;;;5086756;28;20851;-63
2021/09/23 02:00:44;;;;;;;9.70;5.15;;;;;;;;;;5088521;28;20020;-64
2021/09/23 02:03:09;;;;;;;10.43;4.85;;;;;;;;;;5082181;28;20139;-64
2021/09/23 02:05:36;;;;;;;6.90;4.85;;;;;;;;;;5077746;28;20377;-64
2021/09/23 02:08:01;;;;;;;14.05;5.15;;;;;;;;;;5085306;28;20056;-65
2021/09/23 02:10:26;;;;;;;12.35;5.57;;;;;;;;;;5076683;28;20058;-64
2021/09/23 02:12:52;;;;;;;8.55;5.20;;;;;;;;;;5080664;28;20049;-64
2021/09/23 02:15:17;;;;;;;7.32;5.20;;;;;;;;;;5085842;28;20024;-64
2021/09/23 02:17:44;;;;;;;8.07;5.45;;;;;;;;;;5088189;28;20078;-64
2021/09/23 02:20:09;;;;;;;12.40;6.35;;;;;;;;;;5083868;28;20386;-64
2021/09/23 02:22:35;;;;;;;8.25;5.10;;;;;;;;;;5077064;28;20029;-64
2021/09/23 02:25:00;;;;;;;8.85;5.10;;;;;;;;;;5071842;28;20032;-64
2021/09/23 02:27:25;;;;;;;5.80;5.30;;;;;;;;;;5073281;28;20052;-64
2021/09/23 02:29:50;;;;;;;7.90;4.68;;;;;;;;;;5079352;28;20028;-64
2021/09/23 02:32:16;;;;;;;9.57;5.28;;;;;;;;;;5084357;28;20032;-64
2021/09/23 02:34:41;;;;;;;7.63;4.88;;;;;;;;;;5088723;28;20119;-64
2021/09/23 02:37:06;;;;;;;7.90;5.28;;;;;;;;;;5084363;28;20017;-64
2021/09/23 02:39:33;;;;;;;7.32;5.03;;;;;;;;;;5078147;28;20090;-64
2021/09/23 02:41:59;;;;;;;5.57;4.43;;;;;;;;;;5072337;28;20358;-65
2021/09/23 02:44:24;;;;;;;9.18;5.65;;;;;;;;;;5071908;28;20044;-64
2021/09/23 02:46:49;;;;;;;7.85;5.50;;;;;;;;;;5078099;28;20029;-64
2021/09/23 02:49:14;;;;;;;10.00;5.28;;;;;;;;;;5065635;28;20402;-64
2021/09/23 02:51:40;;;;;;;8.88;5.28;;;;;;;;;;5070420;28;20442;-64
2021/09/23 02:54:05;;;;;;;8.45;4.88;;;;;;;;;;5074460;28;20030;-64
2021/09/23 02:56:30;;;;;;;8.77;5.30;;;;;;;;;;5079996;28;20025;-64
2021/09/23 02:58:56;;;;;;;6.95;5.15;;;;;;;;;;5085378;28;20716;-64
2021/09/23 03:01:21;;;;;;;6.68;5.45;;;;;;;;;;5087072;28;20023;-64
2021/09/23 03:03:47;;;;;;;10.32;6.03;;;;;;;;;;5082223;28;20087;-65
2021/09/23 03:06:12;;;;;;;8.93;6.05;;;;;;;;;;5076143;28;20095;-65
2021/09/23 03:08:38;;;;;;;7.03;5.72;;;;;;;;;;5071165;28;20124;-64
2021/09/23 03:11:03;;;;;;;11.18;6.85;;;;;;;;;;5072995;28;20017;-64
2021/09/23 03:13:28;;;;;;;7.50;5.20;;;;;;;;;;5078995;28;20795;-64
2021/09/23 03:15:54;;;;;;;5.05;4.55;;;;;;;;;;5065356;28;20110;-64
2021/09/23 03:18:19;;;;;;;13.68;5.68;;;;;;;;;;5087627;28;20102;-64
2021/09/23 03:20:46;;;;;;;10.07;5.03;;;;;;;;;;5082139;28;20020;-64
2021/09/23 03:23:12;;;;;;;6.95;4.78;;;;;;;;;;5076680;28;20020;-64
2021/09/23 03:25:37;;;;;;;10.38;5.43;;;;;;;;;;5070130;28;20032;-64
2021/09/23 03:28:02;;;;;;;12.77;5.50;;;;;;;;;;5072469;28;20024;-64
2021/09/23 03:30:27;;;;;;;11.43;5.95;;;;;;;;;;5077144;28;20028;-64
2021/09/23 03:32:53;;;;;;;8.80;4.90;;;;;;;;;;5077273;28;20393;-64
2021/09/23 03:35:18;;;;;;;10.00;5.60;;;;;;;;;;5069991;28;20043;-64
2021/09/23 03:37:44;;;;;;;8.60;4.88;;;;;;;;;;5074105;28;20082;-64
2021/09/23 03:40:10;;;;;;;9.98;4.90;;;;;;;;;;5080346;28;20016;-64
2021/09/23 03:42:35;;;;;;;9.40;4.80;;;;;;;;;;5085330;28;20035;-64
2021/09/23 03:45:01;;;;;;;6.47;4.10;;;;;;;;;;5085717;28;20033;-64
2021/09/23 03:47:27;;;;;;;7.05;5.13;;;;;;;;;;5079556;28;20036;-64
2021/09/23 03:49:52;;;;;;;8.77;5.43;;;;;;;;;;5074485;28;20020;-64
2021/09/23 03:52:17;;;;;;;9.75;4.88;;;;;;;;;;5069208;28;20013;-64
2021/09/23 03:54:42;;;;;;;7.82;4.85;;;;;;;;;;5073603;28;20078;-64
2021/09/23 03:57:08;;;;;;;8.98;4.35;;;;;;;;;;5079095;28;20108;-64
2021/09/23 03:59:33;;;;;;;6.55;5.68;;;;;;;;;;5084814;28;20024;-64
2021/09/23 04:01:58;;;;;;;6.03;4.43;;;;;;;;;;5085746;28;20059;-64
2021/09/23 04:04:24;;;;;;;10.00;5.05;;;;;;;;;;5079707;28;20066;-65
2021/09/23 04:06:49;;;;;;;9.55;4.47;;;;;;;;;;5075706;28;20029;-64
2021/09/23 04:09:14;;;;;;;9.02;4.50;;;;;;;;;;5070693;28;20100;-64
2021/09/23 04:11:40;;;;;;;9.38;4.43;;;;;;;;;;5081263;28;20153;-64
2021/09/23 04:14:06;;;;;;;7.60;4.85;;;;;;;;;;5077874;28;20089;-64
2021/09/23 04:16:32;;;;;;;7.25;4.68;;;;;;;;;;5080716;28;20024;-63
2021/09/23 04:18:58;;;;;;;11.00;5.05;;;;;;;;;;5069808;28;20428;-63
2021/09/23 04:21:23;;;;;;;7.90;3.95;;;;;;;;;;5074356;28;20525;-63
2021/09/23 04:23:48;;;;;;;7.68;3.92;;;;;;;;;;5079275;28;20090;-65
2021/09/23 04:26:14;;;;;;;7.20;4.53;;;;;;;;;;5072611;28;20492;-64
2021/09/23 04:28:39;;;;;;;7.93;4.50;;;;;;;;;;5073649;28;20024;-64
2021/09/23 04:31:04;;;;;;;9.65;5.88;;;;;;;;;;5074365;28;20767;-64
2021/09/23 04:33:30;;;;;;;7.90;5.28;;;;;;;;;;5072852;28;20157;-64
2021/09/23 04:35:55;;;;;;;9.18;5.28;;;;;;;;;;5068652;28;20612;-64
2021/09/23 04:38:21;;;;;;;7.45;4.95;;;;;;;;;;5072992;28;20028;-64
2021/09/23 04:40:46;;;;;;;11.00;5.88;;;;;;;;;;5060796;28;20027;-63
2021/09/23 04:43:11;;;;;;;8.70;5.53;;;;;;;;;;5084674;28;20113;-64
2021/09/23 04:45:36;;;;;;;6.93;5.43;;;;;;;;;;5084834;28;20032;-64
2021/09/23 04:48:02;;;;;;;11.60;7.05;;;;;;;;;;5076993;28;20028;-64
2021/09/23 04:50:28;;;;;;;9.52;6.13;;;;;;;;;;5080843;28;20089;-64
2021/09/23 04:52:53;;;;;;;9.90;5.97;;;;;;;;;;5086556;28;20028;-64
2021/09/23 04:55:18;;;;;;;9.40;6.18;;;;;;;;;;5082195;28;20496;-64
2021/09/23 04:57:44;;;;;;;8.73;5.88;;;;;;;;;;5077214;28;20049;-60
2021/09/23 05:00:10;;;;;;;9.43;6.18;;;;;;;;;;5071142;28;20033;-64
2021/09/23 05:02:35;;;;;;;8.70;6.00;;;;;;;;;;5080310;28;20023;-64
2021/09/23 05:05:00;;;;;;;10.43;6.38;;;;;;;;;;5077841;28;20044;-64
2021/09/23 05:07:26;;;;;;;14.10;7.43;;;;;;;;;;5076932;28;20082;-64
2021/09/23 05:09:51;;;;;;;17.23;8.77;;;;;;;;;;5074023;28;20077;-64
2021/09/23 05:12:16;;;;;;;12.57;9.55;;;;;;;;;;5071825;28;20557;-61
2021/09/23 05:14:42;;;;;;;15.77;7.82;;;;;;;;;;5076681;28;20032;-64
2021/09/23 05:17:07;;;;;;;12.57;7.07;;;;;;;;;;5085887;28;20031;-65
2021/09/23 05:19:32;;;;;;;10.32;7.47;;;;;;;;;;5088749;28;20024;-65
2021/09/23 05:21:57;;;;;;;11.60;7.00;;;;;;;;;;5084189;28;20115;-65
2021/09/23 05:24:23;;;;;;;6.97;5.72;;;;;;;;;;5079075;28;20024;-64
2021/09/23 05:26:48;;;;;;;11.30;6.80;;;;;;;;;;5073332;28;20035;-65
2021/09/23 05:29:13;;;;;;;15.05;6.50;;;;;;;;;;5074176;28;20044;-65
2021/09/23 05:31:38;;;;;;;9.95;6.10;;;;;;;;;;5079022;28;20028;-63
2021/09/23 05:34:04;;;;;;;11.45;6.70;;;;;;;;;;5084423;28;20027;-65
2021/09/23 05:36:29;;;;;;;9.18;6.35;;;;;;;;;;5085484;28;20112;-65
2021/09/23 05:38:59;;;;;;;8.25;5.75;;;;;;;;;;5075876;28;20020;-65
2021/09/23 05:41:24;;;;;;;8.90;6.03;;;;;;;;;;5064140;28;20053;-65
2021/09/23 05:43:49;;;;;;;8.40;5.75;;;;;;;;;;5087796;28;20036;-65
2021/09/23 05:46:16;;;;;;;9.95;6.32;;;;;;;;;;5089546;28;20024;-65
2021/09/23 05:48:41;;;;;;;9.60;5.90;;;;;;;;;;5082406;28;20054;-65
2021/09/23 05:51:06;;;;;;;11.25;6.35;;;;;;;;;;5076676;28;20020;-65
2021/09/23 05:53:31;;;;;;;12.85;7.25;;;;;;;;;;5054025;28;20048;-65
2021/09/23 05:55:57;;;;;;;12.23;7.07;;;;;;;;;;5075193;28;20031;-65
2021/09/23 05:58:22;;;;;;;12.05;5.85;;;;;;;;;;5081137;28;20015;-65
2021/09/23 06:00:47;;;;;;;12.68;6.00;;;;;;;;;;5086531;28;20050;-65
2021/09/23 06:03:12;;;;;;;7.07;5.55;;;;;;;;;;5088376;28;20393;-65
2021/09/23 06:05:38;;;;;;;8.45;5.90;;;;;;;;;;5082370;28;20075;-65
2021/09/23 06:08:03;;;;;;;7.32;5.95;;;;;;;;;;5076756;28;20385;-65
2021/09/23 06:10:28;;;;;;;9.05;5.88;;;;;;;;;;5072309;28;20426;-65
2021/09/23 06:12:54;;;;;;;8.07;5.30;;;;;;;;;;5085963;28;20024;-65
2021/09/23 06:15:19;;;;;;;10.45;5.50;;;;;;;;;;5081670;28;20020;-65
2021/09/23 06:17:45;;;;;;;7.25;5.70;;;;;;;;;;5084573;28;20028;-65
2021/09/23 06:20:11;;;;;;;6.85;5.28;;;;;;;;;;5088936;28;20103;-65
2021/09/23 06:22:36;;;;;;;9.63;4.90;;;;;;;;;;5083908;28;20107;-65
2021/09/23 06:25:02;;;;;;;8.23;4.53;;;;;;;;;;5078344;28;20033;-65
2021/09/23 06:27:27;;;;;;;5.90;4.13;;;;;;;;;;5071092;28;20029;-65
2021/09/23 06:29:52;;;;;;;9.38;4.20;;;;;;;;;;5072002;28;20067;-64
2021/09/23 06:32:17;;;;;;;5.32;4.82;;;;;;;;;;5076992;28;20813;-65
2021/09/23 06:34:43;;;;;;;7.90;4.85;;;;;;;;;;5074587;28;20032;-66
2021/09/23 06:37:08;;;;;;;7.07;4.80;;;;;;;;;;5071239;28;20047;-66
2021/09/23 06:39:33;;;;;;;11.65;4.78;;;;;;;;;;5074197;28;20022;-65
2021/09/23 06:41:59;;;;;;;6.93;3.88;;;;;;;;;;5080588;28;20012;-65
2021/09/23 06:44:24;;;;;;;7.30;4.57;;;;;;;;;;5085876;28;20055;-65
2021/09/23 06:46:50;;;;;;;7.95;4.53;;;;;;;;;;5087639;28;20020;-65
2021/09/23 06:49:15;;;;;;;4.55;2.55;;;;;;;;;;5081612;28;20451;-65
2021/09/23 06:51:40;;;;;;;7.22;4.13;;;;;;;;;;5075109;28;20113;-65
2021/09/23 06:54:06;;;;;;;8.02;3.20;;;;;;;;;;5080311;28;20085;-65
2021/09/23 06:56:33;;;;;;;5.25;3.35;;;;;;;;;;5083975;28;20020;-65
2021/09/23 06:58:58;;;;;;;5.55;3.38;;;;;;;;;;5080260;28;20040;-65
2021/09/23 07:01:24;;;;;;;5.20;3.70;;;;;;;;;;5082380;28;20075;-64
2021/09/23 07:03:49;;;;;;;10.30;3.95;;;;;;;;;;5077008;28;20466;-64
2021/09/23 07:06:14;;;;;;;8.73;3.70;;;;;;;;;;5082037;28;20034;-64
2021/09/23 07:08:40;;;;;;;6.80;3.22;;;;;;;;;;5076785;28;20020;-63
2021/09/23 07:11:05;;;;;;;9.65;3.67;;;;;;;;;;5071743;28;20027;-63
2021/09/23 07:13:31;;;;;;;7.60;4.00;;;;;;;;;;5074676;28;20055;-63
2021/09/23 07:15:56;;;;;;;4.70;3.05;;;;;;;;;;5077617;28;20043;-63
2021/09/23 07:18:22;;;;;;;5.15;3.22;;;;;;;;;;5076986;28;20028;-62
2021/09/23 07:20:47;;;;;;;6.10;3.13;;;;;;;;;;5076563;28;20012;-63
2021/09/23 07:23:12;;;;;;;7.20;4.13;;;;;;;;;;5074334;28;20050;-63
2021/09/23 07:25:37;;;;;;;6.03;3.45;;;;;;;;;;5076192;28;20020;-63
2021/09/23 07:28:03;;;;;;;8.30;3.60;;;;;;;;;;5075437;28;20025;-62
2021/09/23 07:30:28;;;;;;;6.88;3.30;;;;;;;;;;5074689;28;20019;-62
2021/09/23 07:32:53;;;;;;;5.18;3.28;;;;;;;;;;5086238;28;20027;-62
2021/09/23 07:35:19;;;;;;;8.63;3.38;;;;;;;;;;5078950;28;20035;-63
2021/09/23 07:37:44;;;;;;;5.72;3.70;;;;;;;;;;5075943;28;20039;-64
2021/09/23 07:40:10;;;;;;;8.18;3.63;;;;;;;;;;5077962;28;20024;-62
2021/09/23 07:42:36;;;;;;;7.85;3.47;;;;;;;;;;5086896;28;20150;-63
2021/09/23 07:45:02;;;;;;;5.50;4.00;;;;;;;;;;5073998;28;20037;-62
2021/09/23 07:47:27;;;;;;;7.45;3.65;;;;;;;;;;5073420;28;20028;-61
2021/09/23 07:49:52;;;;;;;5.38;3.67;;;;;;;;;;5075817;28;20048;-62
2021/09/23 07:52:18;;;;;;;6.03;3.30;;;;;;;;;;5075225;28;20603;-62
2021/09/23 07:54:43;;;;;;;3.92;3.45;;;;;;;;;;5074809;28;20386;-63
2021/09/23 07:57:08;;;;;;;13.20;4.03;;;;;;;;;;5075357;28;20043;-63
2021/09/23 07:59:34;;;;;;;8.50;4.20;;;;;;;;;;5075525;28;20032;-63
2021/09/23 08:01:59;;;;;;;6.05;3.75;;;;;;;;;;5075237;28;20020;-63
2021/09/23 08:04:25;;;;;;;11.25;4.30;;;;;;;;;;5074354;28;20101;-62
2021/09/23 08:06:50;;;;;;;6.97;4.03;;;;;;;;;;5046425;28;20068;-62
2021/09/23 08:09:15;;;;;;;5.15;3.58;;;;;;;;;;5017755;28;20034;-63
2021/09/23 08:11:40;;;;;;;8.25;3.88;;;;;;;;;;5026646;28;20029;-63
2021/09/23 08:14:06;;;;;;;5.03;4.10;;;;;;;;;;5024921;28;20053;-63
2021/09/23 08:16:31;;;;;;;7.07;4.28;;;;;;;;;;5019870;28;20019;-62
2021/09/23 08:18:56;;;;;;;7.53;3.92;;;;;;;;;;5014676;28;20472;-63
2021/09/23 08:21:22;;;;;;;4.50;3.58;;;;;;;;;;5010716;28;20045;-63
2021/09/23 08:23:47;;;;;;;5.57;3.67;;;;;;;;;;5015278;28;20017;-63
2021/09/23 08:26:12;;;;;;;4.63;3.53;;;;;;;;;;5020723;28;20095;-64
2021/09/23 08:28:38;;;;;;;7.45;4.25;;;;;;;;;;5026198;28;20022;-63
2021/09/23 08:31:03;;;;;;;7.72;3.92;;;;;;;;;;5020026;28;20068;-63
2021/09/23 08:33:28;;;;;;;9.30;5.57;;;;;;;;;;5017902;28;20029;-63
2021/09/23 08:35:54;;;;;;;8.68;4.07;;;;;;;;;;5022755;28;20026;-63
2021/09/23 08:38:20;;;;;;;5.20;4.57;;;;;;;;;;5027111;28;20029;-62
2021/09/23 08:40:49;;;;;;;4.55;3.38;;;;;;;;;;5023450;28;20062;-62
2021/09/23 08:43:15;;;;;;;6.25;4.00;;;;;;;;;;5017645;28;20061;-62
2021/09/23 08:45:40;;;;;;;8.25;3.80;;;;;;;;;;5011767;28;20071;-62
2021/09/23 08:48:06;;;;;;;4.68;3.45;;;;;;;;;;5010640;28;20033;-63
2021/09/23 08:50:31;;;;;;;8.63;4.13;;;;;;;;;;5019387;28;20520;-63
2021/09/23 08:52:57;;;;;;;5.70;3.63;;;;;;;;;;5017724;28;20426;-63
2021/09/23 08:55:26;;;;;;;7.68;3.30;;;;;;;;;;5013629;28;20025;-63
2021/09/23 08:57:52;;;;;;;5.53;3.72;;;;;;;;;;5016516;28;20022;-64
2021/09/23 09:00:18;;;;;;;7.78;3.97;;;;;;;;;;5022335;28;20022;-63
2021/09/23 09:02:58;;;;;;;9.20;3.30;;;;;;;;;;5017926;28;20029;-64
2021/09/23 09:05:23;;;;;;;6.82;3.53;;;;;;;;;;5013489;28;20450;-64
2021/09/23 09:07:48;;;;;;;9.55;4.20;;;;;;;;;;5019037;28;20071;-64
2021/09/23 09:10:13;;;;;;;5.82;3.42;;;;;;;;;;5017601;28;20029;-65
2021/09/23 09:12:39;;;;;;;7.65;3.85;;;;;;;;;;5012446;28;20028;-65
2021/09/23 09:15:04;;;;;;;12.35;4.13;;;;;;;;;;5015419;28;20034;-65
2021/09/23 09:17:36;;;;;;;7.63;4.15;;;;;;;;;;5021500;28;20026;-65
2021/09/23 09:20:03;;;;;;;5.63;3.35;;;;;;;;;;5027001;28;20025;-65
2021/09/23 09:22:30;;;;;;;3.75;3.42;;;;;;;;;;5029474;28;20603;-65
2021/09/23 09:24:59;;;;;;;6.82;3.45;;;;;;;;;;5018076;28;20040;-64
2021/09/23 09:27:44;;;;;;;5.07;3.28;;;;;;;;;;5023736;28;20037;-64
2021/09/23 09:30:09;;;;;;;;;;;;;;;;;;5014082;28;20026;-65
2021/09/23 09:32:39;;;;;;;5.97;3.17;;;;;;;;;;5016203;28;19917;-65
2021/09/23 09:35:05;;;;;;;7.60;3.40;;;;;;;;;;5021229;28;20021;-65
2021/09/23 09:37:32;;;;;;;4.60;3.20;;;;;;;;;;5027342;28;20040;-65
2021/09/23 09:39:57;;;;;;;4.82;3.40;;;;;;;;;;5029997;28;20379;-65
2021/09/23 09:42:23;;;;;;;9.95;3.33;;;;;;;;;;5023788;28;20025;-65
2021/09/23 09:44:55;;;;;;;7.50;3.33;;;;;;;;;;5018117;28;20045;-64
2021/09/23 09:47:30;;;;;;;7.93;3.50;;;;;;;;;;5012555;28;20030;-64
2021/09/23 09:49:57;;;;;;;4.13;2.80;;;;;;;;;;5022275;28;20507;-65
2021/09/23 09:52:31;;;;;;;5.65;3.28;;;;;;;;;;5020239;28;20022;-65
2021/09/23 09:55:09;;;;;;;4.70;3.03;;;;;;;;;;5014460;28;20061;-65
2021/09/23 09:57:42;;;;;;;6.03;3.05;;;;;;;;;;5013066;28;20033;-64
2021/09/23 10:00:08;;;;;;;4.10;3.53;;;;;;;;;;5018739;28;20487;-64
2021/09/23 10:02:33;;;;;;;4.35;3.35;;;;;;;;;;5023322;28;20053;-64
2021/09/23 10:04:58;;;;;;;7.10;3.85;;;;;;;;;;5029066;28;20107;-64
2021/09/23 10:07:25;;;;;;;7.43;3.50;;;;;;;;;;5025735;28;20029;-64
2021/09/23 10:09:51;;;;;;;5.22;3.47;;;;;;;;;;5019781;28;20030;-64
2021/09/23 10:12:16;;;;;;;6.57;3.00;;;;;;;;;;5014369;28;20030;-63
2021/09/23 10:14:42;;;;;;;5.63;3.53;;;;;;;;;;5020274;28;20387;-65
2021/09/23 10:17:07;;;;;;;5.97;3.45;;;;;;;;;;5024054;28;20026;-61
2021/09/23 10:19:33;;;;;;;6.28;3.95;;;;;;;;;;5017105;28;20116;-62
2021/09/23 10:21:59;;;;;;;5.00;3.35;;;;;;;;;;5012182;28;20878;-61
2021/09/23 10:24:25;;;;;;;5.35;3.25;;;;;;;;;;5015842;28;20040;-60
2021/09/23 10:26:51;;;;;;;5.22;3.17;;;;;;;;;;5021214;28;20082;-63
2021/09/23 10:29:17;;;;;;;4.15;3.40;;;;;;;;;;5015321;28;20025;-61
2021/09/23 10:31:44;;;;;;;8.60;4.63;;;;;;;;;;5012234;28;20018;-62
2021/09/23 10:34:12;;;;;;;5.93;3.55;;;;;;;;;;5027240;28;20040;-62
2021/09/23 10:36:38;;;;;;;4.97;3.88;;;;;;;;;;5022631;28;20026;-62
2021/09/23 10:39:05;;;;;;;4.07;3.28;;;;;;;;;;5016916;28;20148;-61
2021/09/23 10:41:31;;;;;;;6.90;3.70;;;;;;;;;;5015456;28;20371;-61
2021/09/23 10:43:57;;;;;;;4.55;3.30;;;;;;;;;;5015485;28;20045;-62
2021/09/23 10:46:26;;;;;;;6.88;3.70;;;;;;;;;;5015088;28;20689;-61
2021/09/23 10:48:52;;;;;;;3.60;2.92;;;;;;;;;;5012715;28;20557;-62
2021/09/23 10:51:18;;;;;;;4.00;3.17;;;;;;;;;;5015635;28;20113;-61
2021/09/23 10:53:52;;;;;;;5.65;3.40;;;;;;;;;;5021907;28;20108;-61
2021/09/23 10:56:19;;;;;;;6.30;3.38;;;;;;;;;;5017346;28;20026;-61
2021/09/23 10:58:46;;;;;;;4.57;3.13;;;;;;;;;;5013894;28;20434;-62
2021/09/23 11:01:21;;;;;;;5.43;3.40;;;;;;;;;;5018514;28;20033;-61
2021/09/23 11:03:48;;;;;;;10.98;3.63;;;;;;;;;;5013962;28;20049;-62
2021/09/23 11:06:14;;;;;;;5.65;3.22;;;;;;;;;;5011286;28;20041;-61
2021/09/23 11:08:46;;;;;;;3.47;3.17;;;;;;;;;;5015754;28;20372;-61
2021/09/23 11:11:12;;;;;;;5.72;3.17;;;;;;;;;;5021478;28;20455;-61
2021/09/23 11:13:38;;;;;;;5.07;2.97;;;;;;;;;;5026635;28;20053;-61
2021/09/23 11:16:04;;;;;;;5.03;3.40;;;;;;;;;;5013263;28;20041;-61
2021/09/23 11:18:30;;;;;;;4.45;3.20;;;;;;;;;;5018380;28;20025;-61
2021/09/23 11:20:56;;;;;;;6.50;3.28;;;;;;;;;;5023313;28;20067;-61
2021/09/23 11:23:23;;;;;;;4.45;3.42;;;;;;;;;;5027577;28;20031;-61
2021/09/23 11:25:49;;;;;;;5.40;3.03;;;;;;;;;;5022033;28;20025;-61
2021/09/23 11:28:15;;;;;;;4.53;3.30;;;;;;;;;;5017438;28;20375;-61
2021/09/23 11:30:40;;;;;;;7.38;3.63;;;;;;;;;;5012123;28;20072;-61
2021/09/23 11:33:06;;;;;;;3.97;3.10;;;;;;;;;;5012112;28;20033;-61
2021/09/23 11:35:36;;;;;;;4.32;3.30;;;;;;;;;;5017037;28;20471;-61
2021/09/23 11:38:03;;;;;;;3.95;3.55;;;;;;;;;;5014787;28;20036;-61
2021/09/23 11:40:29;;;;;;;5.65;3.78;;;;;;;;;;5010289;28;20076;-61
2021/09/23 11:42:55;;;;;;;6.22;3.85;;;;;;;;;;5014829;28;20028;-61
2021/09/23 11:45:22;;;;;;;6.82;3.55;;;;;;;;;;5020812;28;20045;-61
2021/09/23 11:47:48;;;;;;;6.57;4.22;;;;;;;;;;5025086;28;20037;-61
2021/09/23 11:50:26;;;;;;;6.18;3.80;;;;;;;;;;5025993;28;20025;-62
2021/09/23 11:52:57;;;;;;;4.72;3.38;;;;;;;;;;5019397;28;20128;-62
2021/09/23 11:55:22;;;;;;;4.60;3.55;;;;;;;;;;5014921;28;20116;-60
2021/09/23 11:57:47;;;;;;;7.35;4.07;;;;;;;;;;5023861;28;20033;-61
2021/09/23 12:00:13;;;;;;;7.53;3.85;;;;;;;;;;5016293;28;20466;-61
2021/09/23 12:02:38;;;;;;;6.93;4.28;;;;;;;;;;5016993;28;20450;-61
2021/09/23 12:05:04;;;;;;;6.00;3.65;;;;;;;;;;5012423;28;20060;-62
2021/09/23 12:07:41;;;;;;;3.78;3.25;;;;;;;;;;5026431;28;20080;-62
2021/09/23 12:10:11;;;;;;;7.10;3.92;;;;;;;;;;5020090;28;20490;-62
2021/09/23 12:12:36;;;;;;;6.60;3.67;;;;;;;;;;5015440;28;20790;-62
2021/09/23 12:15:02;;;;;;;6.47;5.78;;;;;;;;;;5011119;28;20057;-63
2021/09/23 12:17:28;;;;;;;4.68;4.28;;;;;;;;;;5015338;28;20034;-62
2021/09/23 12:19:54;;;;;;;4.22;3.30;;;;;;;;;;5018313;28;20348;-62
2021/09/23 12:22:28;;;;;;;3.88;3.17;;;;;;;;;;5013009;28;20033;-63
2021/09/23 12:24:53;;;;;;;7.65;3.95;;;;;;;;;;5011568;28;20057;-62
2021/09/23 12:27:18;;;;;;;3.40;3.10;;;;;;;;;;5020301;28;20400;-62
2021/09/23 12:29:45;;;;;;;5.53;3.40;;;;;;;;;;5025636;28;20018;-62
2021/09/23 12:32:10;;;;;;;5.47;4.03;;;;;;;;;;5014057;28;20022;-61
2021/09/23 12:34:44;;;;;;;9.23;5.28;;;;;;;;;;5017368;28;20030;-62
2021/09/23 12:37:10;;;;;;;7.40;3.85;;;;;;;;;;5023383;28;20395;-62
2021/09/23 12:39:38;;;;;;;4.53;3.40;;;;;;;;;;5028636;28;20032;-63
2021/09/23 12:42:05;;;;;;;6.40;3.67;;;;;;;;;;5030413;28;20045;-61
2021/09/23 12:44:31;;;;;;;3.70;3.08;;;;;;;;;;5024456;28;20045;-62
2021/09/23 12:47:06;;;;;;;3.72;3.42;;;;;;;;;;5020177;28;20036;-60
2021/09/23 12:49:31;;;;;;;4.07;3.35;;;;;;;;;;5013643;28;20460;-61
2021/09/23 12:52:08;;;;;;;4.22;3.28;;;;;;;;;;5020063;28;20088;-61
2021/09/23 12:54:34;;;;;;;8.85;3.50;;;;;;;;;;5021138;28;20052;-62
2021/09/23 12:57:04;;;;;;;8.13;3.53;;;;;;;;;;5015099;28;20157;-60
2021/09/23 12:59:30;;;;;;;4.30;3.90;;;;;;;;;;5014691;28;20135;-61
2021/09/23 13:02:12;;;;;;;6.20;3.40;;;;;;;;;;5020024;28;20420;-61
2021/09/23 13:04:37;;;;;;;5.35;3.40;;;;;;;;;;5023596;28;20112;-61
2021/09/23 13:07:16;;;;;;;4.35;3.33;;;;;;;;;;5030217;28;20025;-61
2021/09/23 13:09:57;;;;;;;6.78;4.03;;;;;;;;;;5024872;28;20030;-61
2021/09/23 13:12:31;;;;;;;8.45;3.63;;;;;;;;;;5020498;28;20475;-61
2021/09/23 13:14:56;;;;;;;5.78;3.78;;;;;;;;;;5029726;28;20045;-61
2021/09/23 13:17:25;;;;;;;6.57;3.83;;;;;;;;;;5027948;28;20029;-61
2021/09/23 13:19:51;;;;;;;5.40;3.40;;;;;;;;;;5023327;28;20480;-61
2021/09/23 13:22:16;;;;;;;6.00;3.75;;;;;;;;;;5017272;28;20025;-61
2021/09/23 13:24:41;;;;;;;4.85;3.80;;;;;;;;;;5012945;28;20704;-61
2021/09/23 13:27:06;;;;;;;6.97;3.45;;;;;;;;;;5017418;28;20028;-61
2021/09/23 13:29:32;;;;;;;8.65;4.50;;;;;;;;;;5021267;28;20129;-61
2021/09/23 13:31:57;;;;;;;3.78;3.42;;;;;;;;;;5014682;28;20743;-61
2021/09/23 13:34:22;;;;;;;8.00;4.03;;;;;;;;;;5014338;28;20035;-62
2021/09/23 13:36:47;;;;;;;5.93;3.67;;;;;;;;;;5019170;28;20055;-61
2021/09/23 13:39:12;;;;;;;5.38;3.78;;;;;;;;;;5025630;28;20022;-62
2021/09/23 13:41:38;;;;;;;5.47;3.70;;;;;;;;;;5029889;28;20571;-62
2021/09/23 13:44:03;;;;;;;4.35;3.63;;;;;;;;;;5026002;28;20096;-62
2021/09/23 13:46:28;;;;;;;11.90;4.22;;;;;;;;;;5020125;28;20032;-63
2021/09/23 13:48:54;;;;;;;5.95;3.60;;;;;;;;;;5016531;28;20621;-63
2021/09/23 13:51:19;;;;;;;4.63;3.67;;;;;;;;;;5020461;28;20033;-63
2021/09/23 13:53:44;;;;;;;5.93;4.65;;;;;;;;;;5023153;28;20598;-64
2021/09/23 13:56:09;;;;;;;5.20;3.10;;;;;;;;;;5017939;28;20021;-64
2021/09/23 13:58:35;;;;;;;5.78;3.75;;;;;;;;;;5013016;28;20029;-64
2021/09/23 14:01:00;;;;;;;6.63;3.83;;;;;;;;;;5012928;28;20067;-64
2021/09/23 14:03:28;;;;;;;6.45;3.65;;;;;;;;;;5018273;28;20562;-64
2021/09/23 14:05:53;;;;;;;5.53;3.60;;;;;;;;;;5014845;28;20033;-64
2021/09/23 14:08:21;;;;;;;4.53;3.38;;;;;;;;;;5012570;28;20036;-65
2021/09/23 14:10:46;;;;;;;6.72;3.47;;;;;;;;;;5017423;28;20044;-63
2021/09/23 14:13:11;;;;;;;4.05;3.75;;;;;;;;;;5022094;28;20030;-65
2021/09/23 14:15:37;;;;;;;7.88;4.10;;;;;;;;;;5028470;28;20037;-63
2021/09/23 14:18:02;;;;;;;5.60;3.47;;;;;;;;;;5027035;28;20022;-63
2021/09/23 14:20:27;;;;;;;5.35;3.67;;;;;;;;;;5021796;28;20085;-63
2021/09/23 14:22:52;;;;;;;4.05;3.65;;;;;;;;;;5018341;28;20566;-64
2021/09/23 14:25:18;;;;;;;3.58;3.28;;;;;;;;;;5028910;28;20029;-64
2021/09/23 14:27:43;;;;;;;4.25;3.30;;;;;;;;;;5023737;28;20392;-63
2021/09/23 14:30:10;;;;;;;5.18;3.28;;;;;;;;;;5018681;28;20026;-63
2021/09/23 14:32:35;;;;;;;3.25;2.78;;;;;;;;;;5012925;28;20100;-64
2021/09/23 14:35:01;;;;;;;3.65;3.35;;;;;;;;;;5012717;28;20423;-64